Terminal Aerodrome Forecast
Issued by NWS Cleveland, OH

Home | Current Version | Previous Version | Text Only | Print | Product List | Glossary Off
Versions: 1 2 3 4 5 6 7 8 9 10 11 12 13 14 15 16 17 18 19 20 21 22 23 24 25

875
FTUS41 KCLE 191043 AAA
TAFTOL
TAF AMD
KTOL 191043Z 1911/2006 15006KT 6SM -SHRA BR SCT020 OVC050
      TEMPO 1911/1913 3SM -RA BR BKN020
     FM191300 17007KT 4SM -SHRA BKN005 OVC012
      TEMPO 1915/1918 1SM SHRA
     FM191800 19011KT 2SM -SHRA BR BKN005 OVC015 WS020/22045KT=

USA.gov is the U.S. government's official web portal to all federal, state and local government web resources and services.